Latest Weather Observations for Amberley

IDQ60801

Issued at 4:32 am EST Sunday 20 August 2017 (issued every 30 minutes, with the page automatically refreshed every 10 minutes)

About weather observations | Map of weather stations | Latest weather observations for QLD | Other Formats
Station Details ID: 040004 Name: AMBERLEY AMO Lat: -27.63 Lon: 152.71 Height: 24.2 m
Data from the previous 72 hours. | See also: Recent months at Amberley
Date/Time
EST
Temp
°C
App
Temp
°C
Dew
Point
°C
Rel
Hum
%
Delta-T
°C
Wind Press
QNH
hPa
Press
MSL
hPa
Rain since
9am
mm
Dir  Spd
km/h
Gust
km/h
Spd
kts
Gust
kts
20/04:30am 0.1 - - - - CALM 0 0 0 0 1018.6 1018.6 0.0
20/04:00am 0.5 - - - - CALM 0 0 0 0 1018.2 1018.2 0.0
20/03:30am 0.5 - - - - CALM 0 6 0 3 1018.1 1018.1 0.0
20/03:00am 1.5 - - - - CALM 0 0 0 0 1018.1 1018.1 0.0
20/02:30am 2.4 0.0 -3.2 66 1.9 CALM 0 0 0 0 1018.0 1018.0 0.0
20/02:00am 1.6 - - - - CALM 0 0 0 0 1018.2 1018.2 0.0
20/01:30am 2.0 -0.3 -2.7 71 1.6 CALM 0 0 0 0 1018.3 1018.3 0.0
20/01:00am 2.8 0.5 -2.7 67 1.9 CALM 0 0 0 0 1018.3 1018.3 0.0
20/12:30am 2.1 -2.0 -2.9 69 1.7 SSW 9 11 5 6 1018.4 1018.4 0.0
20/12:00am 3.7 1.4 -2.6 63 2.2 CALM 0 0 0 0 1018.5 1018.5 0.0
 
Date/Time
EST
Temp
°C
App
Temp
°C
Dew
Point
°C
Rel
Hum
%
Delta-T
°C
Wind Press
QNH
hPa
Press
MSL
hPa
Rain since
9am
mm
Dir  Spd
km/h
Gust
km/h
Spd
kts
Gust
kts
19/11:30pm 3.5 -0.2 -2.9 63 2.2 NW 7 9 4 5 1018.7 1018.7 0.0
19/11:00pm 4.8 0.9 -4.4 51 3.1 ENE 7 11 4 6 1018.9 1018.9 0.0
19/10:30pm 3.7 -0.9 -4.0 57 2.6 NNW 11 11 6 6 1018.8 1018.8 0.0
19/10:00pm 8.2 3.7 -6.8 34 5.0 W 9 13 5 7 1018.5 1018.5 0.0
19/09:30pm 11.0 6.7 -5.1 32 5.8 WSW 9 11 5 6 1018.4 1018.4 0.0
19/09:00pm 11.7 5.7 -6.5 27 6.4 WSW 17 28 9 15 1018.1 1018.1 0.0
19/08:30pm 11.7 6.0 -7.0 26 6.5 WSW 15 24 8 13 1017.9 1017.9 0.0
19/08:00pm 11.6 6.3 -7.2 26 6.5 WSW 13 15 7 8 1017.5 1017.5 0.0
19/07:30pm 14.1 9.1 -7.8 21 7.7 SW 11 17 6 9 1017.3 1017.3 0.0
19/07:00pm 15.2 9.3 -9.5 17 8.5 SW 15 20 8 11 1016.7 1016.7 0.0
19/06:30pm 15.6 8.0 -10.3 16 8.8 WSW 24 30 13 16 1016.1 1016.1 0.0
19/06:00pm 16.3 9.1 -10.2 15 9.1 WSW 22 30 12 16 1015.6 1015.6 0.0
19/05:30pm 17.0 9.3 -10.7 14 9.5 SW 24 32 13 17 1015.3 1015.3 0.0
19/05:00pm 18.0 9.6 -10.9 13 10.0 WSW 28 39 15 21 1014.7 1014.7 0.0
19/04:30pm 18.6 10.5 -11.0 12 10.3 WSW 26 37 14 20 1014.2 1014.2 0.0
19/04:00pm 18.8 10.4 -10.3 13 10.3 WSW 28 41 15 22 1013.9 1013.9 0.0
19/03:30pm 19.2 10.9 -9.0 14 10.3 WSW 28 37 15 20 1013.8 1013.8 0.0
19/03:00pm 19.5 10.8 -9.3 13 10.5 WSW 30 44 16 24 1013.9 1013.9 0.0
19/02:30pm 19.6 10.5 -9.0 13 10.5 WSW 32 50 17 27 1013.8 1013.8 0.0
19/02:22pm 19.6 11.0 -8.4 14 10.4 WSW 30 50 16 27 1013.8 1013.8 0.0
19/02:00pm 19.4 11.2 -8.4 14 10.3 WSW 28 44 15 24 1013.9 1013.9 0.0
19/01:30pm 19.3 11.4 -8.7 14 10.3 SW 26 44 14 24 1014.1 1014.1 0.0
19/01:20pm 20.0 11.4 -8.4 14 10.6 WSW 30 48 16 26 1014.2 1014.2 0.0
19/01:00pm 19.1 9.9 -10.7 12 10.5 WSW 32 41 17 22 1014.5 1014.5 0.0
19/12:30pm 19.9 10.7 -10.8 11 10.9 SW 32 52 17 28 1014.9 1014.9 0.0
19/12:25pm 19.8 11.5 -9.1 13 10.6 WSW 28 52 15 28 1014.9 1014.9 0.0
19/12:00pm 19.2 10.2 -8.4 14 10.2 SW 32 46 17 25 1015.4 1015.4 0.0
19/11:30am 18.8 9.7 -9.0 14 10.1 WSW 32 50 17 27 1015.8 1015.8 0.0
19/11:09am 19.1 10.1 -8.7 14 10.2 SW 32 50 17 27 1016.1 1016.1 0.0
19/11:00am 18.2 8.5 -9.6 14 9.9 SW 35 52 19 28 1016.1 1016.1 0.0
19/10:30am 18.3 8.2 -10.6 13 10.1 SW 37 50 20 27 1016.5 1016.5 0.0
19/10:26am 18.3 8.6 -10.0 13 10.0 SW 35 50 19 27 1016.5 1016.5 0.0
19/10:00am 17.7 8.5 -10.5 13 9.8 WSW 32 48 17 26 1016.7 1016.7 0.0
19/09:30am 17.2 8.1 -10.1 14 9.5 WSW 32 43 17 23 1016.9 1016.9 0.0
19/09:00am 16.9 6.9 -8.4 17 9.1 WSW 37 50 20 27 1017.2 1017.2 0.0
19/08:36am 16.0 7.9 -6.9 20 8.4 WSW 28 48 15 26 1017.3 1017.3 0.0
19/08:30am 15.8 7.4 -6.3 21 8.2 WSW 30 41 16 22 1017.4 1017.4 0.0
19/08:00am 14.9 8.1 -4.9 25 7.5 WSW 22 37 12 20 1017.5 1017.5 0.0
19/07:30am 12.0 7.9 -3.2 34 5.8 NW 9 13 5 7 1017.3 1017.3 0.0
19/07:00am 9.1 5.5 -2.3 44 4.3 N 7 9 4 5 1017.3 1017.3 0.0
19/06:30am 9.3 5.8 -3.1 41 4.6 NE 6 9 3 5 1017.0 1017.0 0.0
19/06:00am 9.4 6.6 -3.0 41 4.6 NE 2 9 1 5 1016.7 1016.7 0.0
19/05:30am 12.0 6.9 -5.4 29 6.3 W 13 20 7 11 1016.5 1016.5 0.0
19/05:00am 13.4 6.6 -5.3 27 6.9 WSW 22 33 12 18 1016.0 1016.0 0.0
19/04:30am 13.9 5.9 -5.6 25 7.2 WSW 28 39 15 21 1015.7 1015.7 0.0
19/04:00am 14.1 6.5 -5.2 26 7.2 WSW 26 33 14 18 1015.7 1015.7 0.0
19/03:30am 14.9 6.5 -6.3 22 7.8 WSW 30 44 16 24 1015.5 1015.5 0.0
19/03:00am 14.7 6.4 -5.3 24 7.5 WSW 30 43 16 23 1015.4 1015.4 0.0
19/02:30am 15.2 6.8 -5.6 23 7.8 WSW 30 41 16 22 1015.6 1015.6 0.0
19/02:00am 15.0 7.4 -5.1 24 7.6 WSW 26 35 14 19 1015.8 1015.8 0.0
19/01:30am 15.1 8.4 -4.5 25 7.5 WSW 22 32 12 17 1016.0 1016.0 0.0
19/01:00am 15.4 8.6 -4.7 24 7.7 WSW 22 30 12 16 1016.2 1016.2 0.0
19/12:30am 15.2 8.1 -4.3 26 7.5 WSW 24 30 13 16 1016.2 1016.2 0.0
19/12:00am 13.6 8.5 -2.3 33 6.3 WSW 15 19 8 10 1016.2 1016.2 0.0
 
Date/Time
EST
Temp
°C
App
Temp
°C
Dew
Point
°C
Rel
Hum
%
Delta-T
°C
Wind Press
QNH
hPa
Press
MSL
hPa
Rain since
9am
mm
Dir  Spd
km/h
Gust
km/h
Spd
kts
Gust
kts
18/11:30pm 14.0 8.5 -2.4 32 6.5 WSW 17 19 9 10 1016.2 1016.2 0.0
18/11:00pm 13.4 8.7 -1.9 34 6.1 W 13 17 7 9 1016.1 1016.1 0.0
18/10:30pm 14.5 9.4 -1.9 32 6.6 W 15 17 8 9 1016.2 1016.2 0.0
18/10:00pm 14.9 10.2 -1.5 32 6.7 WSW 13 15 7 8 1016.0 1016.0 0.0
18/09:30pm 15.5 11.1 -2.4 29 7.2 WSW 11 15 6 8 1015.9 1015.9 0.0
18/09:00pm 15.7 10.9 -2.4 29 7.3 W 13 17 7 9 1015.7 1015.7 0.0
18/08:30pm 17.2 12.3 -3.1 25 8.2 W 13 15 7 8 1015.4 1015.4 0.0
18/08:00pm 17.2 11.5 -4.0 23 8.4 W 17 20 9 11 1015.1 1015.1 0.0
18/07:30pm 18.4 12.5 -5.5 19 9.3 W 17 24 9 13 1014.7 1014.7 0.0
18/07:00pm 19.2 12.7 -6.1 17 9.8 W 20 32 11 17 1014.4 1014.4 0.0
18/06:30pm 19.9 12.2 -6.9 16 10.3 W 26 35 14 19 1013.8 1013.8 0.0
18/06:00pm 20.6 13.2 -7.8 14 10.8 W 24 33 13 18 1013.3 1013.3 0.0
18/05:30pm 21.2 13.5 -6.6 15 10.9 W 26 33 14 18 1013.0 1013.0 0.0
18/05:00pm 21.9 13.4 -6.9 14 11.3 W 30 41 16 22 1012.6 1012.6 0.0
18/04:30pm 22.7 14.8 -8.7 11 12.0 W 26 44 14 24 1012.1 1012.1 0.0
18/04:03pm 23.4 14.3 -9.6 10 12.5 W 32 50 17 27 1011.8 1011.8 0.0
18/04:00pm 23.6 14.4 -8.9 11 12.5 WSW 33 48 18 26 1011.8 1011.8 0.0
18/03:30pm 24.1 15.0 -9.2 10 12.8 W 32 50 17 27 1011.3 1011.3 0.0
18/03:21pm 24.2 14.5 -9.5 10 12.9 W 35 54 19 29 1011.3 1011.3 0.0
18/03:00pm 24.4 14.7 -9.5 10 13.0 W 35 50 19 27 1011.4 1011.4 0.0
18/02:35pm 25.1 15.1 -9.0 10 13.3 W 37 56 20 30 1011.5 1011.5 0.0
18/02:30pm 24.9 14.5 -9.1 10 13.2 W 39 54 21 29 1011.5 1011.5 0.0
18/02:09pm 25.0 15.9 -9.4 9 13.3 W 32 52 17 28 1011.5 1011.5 0.0
18/02:00pm 25.4 15.9 -7.3 11 13.2 W 35 52 19 28 1011.6 1011.6 0.0
18/01:50pm 25.3 15.3 -9.0 9 13.4 W 37 52 20 28 1011.7 1011.7 0.0
18/01:32pm 25.7 17.2 -6.9 11 13.3 WSW 30 50 16 27 1011.7 1011.7 0.0
18/01:30pm 26.0 17.5 -7.2 10 13.5 WSW 30 39 16 21 1011.7 1011.7 0.0
18/01:00pm 25.4 16.4 -6.7 11 13.1 W 33 44 18 24 1012.0 1012.0 0.0
18/12:36pm 24.7 15.2 -7.8 11 12.9 W 35 54 19 29 1012.3 1012.3 0.0
18/12:30pm 25.2 15.3 -7.4 11 13.1 W 37 50 20 27 1012.4 1012.4 0.0
18/12:00pm 24.7 15.4 -5.4 13 12.5 W 35 48 19 26 1012.9 1012.9 0.0
18/11:30am 24.6 15.2 -6.9 12 12.7 W 35 54 19 29 1013.5 1013.5 0.0
18/11:00am 24.3 15.9 -6.1 13 12.4 WSW 30 41 16 22 1014.0 1014.0 0.0
18/10:47am 23.8 14.7 -7.0 12 12.3 W 33 52 18 28 1014.2 1014.2 0.0
18/10:30am 23.9 15.0 -7.3 12 12.4 W 32 41 17 22 1014.3 1014.3 0.0
18/10:00am 23.0 15.4 -5.4 14 11.6 W 26 35 14 19 1014.9 1014.9 0.0
18/09:30am 22.6 16.3 -4.4 16 11.2 W 20 33 11 18 1015.0 1015.0 0.0
18/09:00am 21.4 15.3 -3.6 18 10.4 WNW 19 28 10 15 1015.2 1015.2 0.0
18/08:30am 20.4 15.6 -2.3 21 9.6 W 13 24 7 13 1015.2 1015.2 0.0
18/08:00am 17.3 15.9 3.5 39 6.4 CALM 0 0 0 0 1015.0 1015.0 0.0
18/07:54am 15.9 14.9 5.4 49 5.0 CALM 0 0 0 0 1014.9 1014.9 0.0
18/07:30am 10.7 10.1 7.6 81 1.5 CALM 0 0 0 0 1014.7 1014.7 0.0
18/07:00am 6.9 5.7 4.4 84 1.1 CALM 0 0 0 0 1014.5 1014.5 0.0
18/06:30am 5.8 4.5 3.9 88 0.8 CALM 0 0 0 0 1014.3 1014.3 0.0
18/06:00am 5.9 4.5 3.5 84 1.0 CALM 0 0 0 0 1014.0 1014.0 0.0
18/05:30am 6.6 5.0 4.3 85 1.0 ENE 2 7 1 4 1013.7 1013.7 0.0
18/05:00am 6.8 5.6 4.5 85 1.0 CALM 0 0 0 0 1013.4 1013.4 0.0
18/04:30am 7.8 6.7 5.1 83 1.2 CALM 0 0 0 0 1012.9 1012.9 0.0
18/04:00am 8.3 7.3 5.6 83 1.2 CALM 0 0 0 0 1012.7 1012.7 0.0
18/03:30am 7.6 6.6 5.8 88 0.8 CALM 0 0 0 0 1012.5 1012.5 0.0
18/03:00am 8.1 6.3 5.4 83 1.2 SE 4 7 2 4 1012.4 1012.4 0.0
18/02:30am 10.0 9.0 5.6 74 2.0 CALM 0 0 0 0 1012.4 1012.4 0.0
18/02:00am 10.4 9.6 6.6 77 1.8 CALM 0 0 0 0 1012.6 1012.6 0.0
18/01:30am 11.2 10.5 7.0 75 2.0 CALM 0 0 0 0 1012.5 1012.5 0.0
18/01:00am 11.7 11.0 7.1 73 2.2 CALM 0 0 0 0 1012.5 1012.5 0.0
18/12:30am 12.2 11.4 6.5 68 2.7 CALM 0 0 0 0 1012.5 1012.5 0.0
18/12:00am 12.1 11.2 6.2 67 2.8 CALM 0 0 0 0 1012.5 1012.5 0.0
 
Date/Time
EST
Temp
°C
App
Temp
°C
Dew
Point
°C
Rel
Hum
%
Delta-T
°C
Wind Press
QNH
hPa
Press
MSL
hPa
Rain since
9am
mm
Dir  Spd
km/h
Gust
km/h
Spd
kts
Gust
kts
17/11:30pm 13.3 12.5 6.6 64 3.2 CALM 0 0 0 0 1012.5 1012.5 0.0
17/11:00pm 15.8 14.4 5.6 50 4.9 SE 2 6 1 3 1012.4 1012.4 0.0
17/10:30pm 17.1 16.3 6.3 49 5.3 CALM 0 0 0 0 1012.2 1012.2 0.0
17/10:00pm 17.3 13.8 5.3 45 5.8 W 13 17 7 9 1012.0 1012.0 0.0
17/09:30pm 21.5 17.5 5.1 34 8.1 W 15 17 8 9 1011.7 1011.7 0.0
17/09:00pm 20.2 16.1 6.2 40 7.0 W 17 19 9 10 1011.7 1011.7 0.0
17/08:30pm 19.0 15.9 7.4 47 5.9 W 13 19 7 10 1011.4 1011.4 0.0
17/08:00pm 20.9 17.0 7.3 41 7.0 W 17 24 9 13 1011.2 1011.2 0.0
17/07:30pm 23.9 21.3 7.8 35 8.5 W 11 15 6 8 1010.7 1010.7 0.0
17/07:00pm 24.5 21.9 7.7 34 8.9 WSW 11 13 6 7 1010.4 1010.4 0.0
17/06:30pm 25.4 22.7 7.5 32 9.5 WSW 11 15 6 8 1009.7 1009.7 0.0
17/06:00pm 27.3 22.6 6.1 26 11.1 WSW 20 30 11 16 1009.2 1009.2 0.0
17/05:30pm 28.3 23.0 5.1 23 12.0 WSW 22 41 12 22 1008.7 1008.7 0.0
17/05:00pm 29.4 23.3 4.6 20 12.8 WSW 26 39 14 21 1008.3 1008.3 0.0
17/04:30pm 30.4 24.6 4.3 19 13.5 WSW 24 37 13 20 1007.8 1007.8 0.0
17/04:00pm 31.1 24.5 4.3 18 13.9 W 28 37 15 20 1007.5 1007.5 0.0
17/03:30pm 31.9 25.5 5.0 18 14.2 W 28 46 15 25 1007.2 1007.2 0.0
17/03:28pm 31.9 25.4 4.6 18 14.3 W 28 46 15 25 1007.2 1007.2 0.0
17/03:00pm 31.9 25.3 4.3 17 14.4 W 28 39 15 21 1007.1 1007.1 0.0
17/02:30pm 32.6 25.7 4.7 17 14.7 W 30 44 16 24 1007.3 1007.3 0.0
17/02:00pm 32.2 23.3 3.1 16 14.9 WNW 39 52 21 28 1007.5 1007.5 0.0
17/01:39pm 32.1 23.6 2.9 15 14.9 WNW 37 56 20 30 1007.7 1007.7 0.0
17/01:30pm 32.2 23.7 3.1 16 14.9 WNW 37 50 20 27 1007.9 1007.9 0.0
17/01:18pm 32.0 24.4 3.0 16 14.8 W 32 50 17 27 1007.9 1007.9 0.0
17/01:00pm 31.7 26.9 5.6 19 13.9 NW 20 30 11 16 1008.0 1008.0 0.0
17/12:30pm 30.9 26.0 8.3 24 12.5 NW 24 35 13 19 1008.6 1008.6 0.0
17/12:00pm 29.9 26.7 8.6 26 11.8 WNW 15 33 8 18 1009.3 1009.3 0.0
17/11:30am 29.1 24.5 9.7 29 10.9 NW 24 33 13 18 1010.1 1010.1 0.0
17/11:00am 28.3 24.1 9.7 31 10.4 NW 22 30 12 16 1010.7 1010.7 0.0
17/10:30am 27.6 23.4 9.6 32 10.0 WNW 22 32 12 17 1011.4 1011.4 0.0
17/10:00am 26.5 22.4 10.2 36 9.1 WNW 22 30 12 16 1011.8 1011.8 0.0
17/09:30am 25.7 23.4 11.9 42 7.9 NW 15 20 8 11 1012.0 1012.0 0.0
17/09:00am 24.4 22.1 13.0 49 6.6 NW 17 22 9 12 1012.2 1012.2 0.0
17/08:30am 23.1 21.5 12.8 52 5.9 NW 13 17 7 9 1012.3 1012.3 0.0
17/08:00am 21.3 20.1 13.9 62 4.3 NW 13 17 7 9 1012.3 1012.3 0.0
17/07:30am 20.0 19.2 14.1 69 3.4 WNW 11 13 6 7 1012.1 1012.1 0.0
17/07:00am 17.5 17.6 14.0 80 2.0 W 6 11 3 6 1012.0 1012.0 0.0
17/06:30am 14.8 13.6 11.6 81 1.7 NNW 9 11 5 6 1011.6 1011.6 0.0
17/06:00am 13.4 13.7 10.9 85 1.3 CALM 0 0 0 0 1011.4 1011.4 0.0
17/05:30am 12.6 12.4 10.3 86 1.2 S 2 7 1 4 1011.1 1011.1 0.0
17/05:00am 13.5 13.6 10.0 79 1.8 CALM 0 0 0 0 1010.9 1010.9 0.0

Other Formats:

Comma delimited format used in spreadsheet applications
http://www.bom.gov.au/fwo/IDQ60801/IDQ60801.94568.axf

JavaScript Object Notation format (JSON) in row-major order
http://www.bom.gov.au/fwo/IDQ60801/IDQ60801.94568.json